Time;durP1;ratioP1;P1;durP2;ratioP2;P2;SDS_P1;SDS_P2;PMS_P1;PMS_P2;Temp;Humidity;BMP_temperature;BMP_pressure;BME280_temperature;BME280_humidity;BME280_pressure;Samples;Min_cycle;Max_cycle;Signal;HPM_P1;HPM_P2
2022/01/09 00:00:23;;;;;;;20.17;11.97;;;7.20;97.70;;;7.10;69.51;94132.41;5078550;28;20467;-59
2022/01/09 00:02:51;;;;;;;18.23;11.90;;;7.20;97.70;;;7.11;69.77;94134.03;5080830;28;20530;-59
2022/01/09 00:05:18;;;;;;;32.10;12.73;;;7.20;97.90;;;7.11;70.06;94128.81;5075469;28;20466;-58
2022/01/09 00:07:46;;;;;;;20.57;13.17;;;7.20;98.00;;;7.10;69.80;94125.38;5075054;28;20457;-59
2022/01/09 00:10:13;;;;;;;24.60;14.00;;;7.20;97.80;;;7.11;69.61;94132.28;5078208;28;20482;-58
2022/01/09 00:12:40;;;;;;;23.13;12.80;;;7.20;97.70;;;7.11;69.92;94134.03;5080491;28;20455;-59
2022/01/09 00:15:10;;;;;;;24.13;13.60;;;7.20;97.70;;;7.10;69.83;94135.84;5076907;28;20563;-59
2022/01/09 00:17:38;;;;;;;22.87;13.50;;;7.20;97.80;;;7.10;69.62;94130.63;5078032;28;20462;-59
2022/01/09 00:20:07;;;;;;;31.80;14.47;;;7.20;97.80;;;7.10;69.55;94128.00;5077492;28;20497;-59
2022/01/09 00:22:38;;;;;;;25.67;14.93;;;7.20;97.80;;;7.12;69.49;94128.69;5075246;28;20860;-60
2022/01/09 00:25:06;;;;;;;26.77;15.60;;;7.20;97.80;;;7.12;69.46;94128.69;5073436;28;20463;-57
2022/01/09 00:27:33;;;;;;;31.17;14.50;;;7.20;97.80;;;7.13;69.76;94134.75;5074895;28;20556;-58
2022/01/09 00:30:01;;;;;;;25.47;14.53;;;7.20;97.70;;;7.11;69.43;94132.28;5076045;28;21018;-60
2022/01/09 00:32:29;;;;;;;27.40;15.27;;;7.20;97.70;;;7.10;69.65;94125.38;5075209;28;20794;-59
2022/01/09 00:34:57;;;;;;;29.57;15.30;;;7.20;97.70;;;7.10;69.93;94125.38;5075024;28;20516;-58
2022/01/09 00:37:24;;;;;;;24.83;14.40;;;7.20;97.70;;;7.11;69.81;94121.81;5078988;28;20468;-59
2022/01/09 00:39:51;;;;;;;29.80;15.60;;;7.20;97.80;;;7.12;69.85;94118.22;5078165;28;20453;-59
2022/01/09 00:42:19;;;;;;;25.73;14.67;;;7.20;98.20;;;7.12;70.02;94122.63;5080082;28;20446;-60
2022/01/09 00:44:46;;;;;;;29.53;15.33;;;7.20;97.80;;;7.12;69.90;94113.00;5075961;28;20455;-59
2022/01/09 00:47:13;;;;;;;25.23;14.80;;;7.20;97.90;;;7.14;69.97;94112.84;5077853;28;20455;-59
2022/01/09 00:49:42;;;;;;;24.40;14.23;;;7.20;97.80;;;7.14;69.72;94118.09;5073387;28;20462;-58
2022/01/09 00:52:09;;;;;;;28.43;15.17;;;7.20;97.90;;;7.15;69.49;94109.28;5079311;28;20454;-58
2022/01/09 00:54:36;;;;;;;25.80;13.73;;;7.20;97.90;;;7.16;69.95;94118.78;5075689;28;20494;-58
2022/01/09 00:57:04;;;;;;;24.63;12.90;;;7.20;97.80;;;7.16;70.04;94105.72;5075006;28;20858;-58
2022/01/09 00:59:32;;;;;;;21.57;13.20;;;7.20;98.00;;;7.17;70.29;94110.81;5079214;28;20512;-57
2022/01/09 01:01:59;;;;;;;22.20;12.50;;;7.20;97.80;;;7.17;70.07;94113.44;5077520;28;20519;-57
2022/01/09 01:04:26;;;;;;;21.43;12.07;;;7.20;97.70;;;7.17;69.33;94112.56;5077348;28;20481;-60
2022/01/09 01:06:55;;;;;;;24.27;13.03;;;7.30;97.80;;;7.16;69.31;94111.75;5079300;28;20494;-57
2022/01/09 01:09:23;;;;;;;26.33;14.40;;;7.20;97.50;;;7.11;69.20;94106.13;5078146;28;20461;-59
2022/01/09 01:11:51;;;;;;;28.13;14.93;;;7.20;97.50;;;7.10;70.04;94101.84;5074655;28;20478;-58
2022/01/09 01:14:22;;;;;;;22.97;14.60;;;7.20;97.60;;;7.08;69.25;94101.19;5075009;28;21025;-59
2022/01/09 01:16:49;;;;;;;23.27;13.50;;;7.20;97.70;;;7.08;69.60;94101.19;5073553;28;20459;-60
2022/01/09 01:19:17;;;;;;;21.57;12.87;;;7.20;97.80;;;7.10;69.65;94096.63;5082324;28;20503;-57
2022/01/09 01:21:44;;;;;;;23.60;13.23;;;7.20;97.80;;;7.12;69.75;94096.50;5074530;28;20882;-57
2022/01/09 01:24:12;;;;;;;24.33;13.97;;;7.20;97.90;;;7.13;69.77;94103.38;5079435;28;20447;-59
2022/01/09 01:26:40;;;;;;;24.40;12.40;;;7.20;97.80;;;7.13;69.53;94101.56;5078127;28;20465;-59
2022/01/09 01:29:07;;;;;;;20.47;13.43;;;7.20;97.90;;;7.13;69.91;94093.72;5078859;28;20458;-59
2022/01/09 01:31:34;;;;;;;23.20;13.30;;;7.20;98.40;;;7.15;69.85;94091.78;5074930;28;20558;-58
2022/01/09 01:34:02;;;;;;;21.30;13.57;;;7.20;98.00;;;7.16;70.21;94082.19;5073878;28;20446;-59
2022/01/09 01:36:29;;;;;;;21.83;12.33;;;7.20;98.00;;;7.17;69.51;94084.66;5077497;28;21009;-59
2022/01/09 01:38:56;;;;;;;19.43;12.47;;;7.20;97.80;;;7.18;69.61;94090.69;5075640;28;20455;-57
2022/01/09 01:41:25;;;;;;;25.70;12.07;;;7.20;97.90;;;7.17;69.90;94087.28;5080759;28;20497;-57
2022/01/09 01:43:52;;;;;;;21.00;13.20;;;7.20;97.90;;;7.17;70.26;94079.44;5076974;28;20454;-57
2022/01/09 01:46:19;;;;;;;20.33;12.23;;;7.20;98.00;;;7.18;69.99;94075.81;5077108;28;20478;-59
2022/01/09 01:48:47;;;;;;;21.40;12.33;;;7.20;98.00;;;7.20;70.06;94077.50;5079142;28;20446;-59
2022/01/09 01:51:14;;;;;;;25.70;12.43;;;7.30;97.90;;;7.20;69.62;94080.09;5074875;28;20482;-58
2022/01/09 01:53:41;;;;;;;25.23;12.40;;;7.20;97.90;;;7.20;69.77;94072.25;5077771;28;20926;-60
2022/01/09 01:56:12;;;;;;;21.90;12.50;;;7.30;98.00;;;7.18;69.33;94067.97;5076934;28;20494;-60
2022/01/09 01:58:41;;;;;;;20.50;11.93;;;7.30;97.80;;;7.17;69.55;94062.88;5074053;28;20443;-57
2022/01/09 02:01:08;;;;;;;18.23;11.33;;;7.30;97.90;;;7.18;69.39;94054.91;5073806;28;20927;-59
2022/01/09 02:03:35;;;;;;;20.80;11.73;;;7.30;97.90;;;7.20;69.43;94046.09;5074661;28;20987;-59
2022/01/09 02:06:02;;;;;;;21.70;11.87;;;7.30;98.00;;;7.21;69.60;94039.91;5073651;28;20471;-59
2022/01/09 02:08:31;;;;;;;24.80;12.40;;;7.30;97.90;;;7.23;69.72;94036.19;5072748;28;20447;-58
2022/01/09 02:10:58;;;;;;;18.70;11.47;;;7.30;97.90;;;7.23;70.19;94025.72;5075368;28;20943;-58
2022/01/09 02:13:26;;;;;;;16.00;9.70;;;7.30;97.90;;;7.24;69.42;94018.72;5074830;28;20458;-58
2022/01/09 02:15:57;;;;;;;18.00;11.80;;;7.30;97.80;;;7.25;69.81;94023.81;5076787;28;20498;-58
2022/01/09 02:18:25;;;;;;;16.97;11.30;;;7.30;97.70;;;7.24;69.94;94022.16;5075786;28;20451;-58
2022/01/09 02:20:53;;;;;;;16.37;10.60;;;7.30;97.90;;;7.25;69.04;94020.34;5077579;28;20477;-58
2022/01/09 02:23:20;;;;;;;19.30;10.57;;;7.30;97.60;;;7.26;69.12;94022.00;5071314;28;20828;-58
2022/01/09 02:25:48;;;;;;;20.23;11.57;;;7.30;97.60;;;7.24;69.22;94022.16;5072256;28;20462;-59
2022/01/09 02:28:16;;;;;;;17.17;11.47;;;7.30;97.70;;;7.23;69.55;94014.44;5071629;28;20823;-60
2022/01/09 02:30:44;;;;;;;17.27;9.80;;;7.30;97.70;;;7.20;69.23;94005.06;5078943;28;20546;-58
2022/01/09 02:33:15;;;;;;;20.27;11.77;;;7.30;97.60;;;7.18;69.44;94007.03;5072879;28;20481;-59
2022/01/09 02:35:42;;;;;;;16.70;11.67;;;7.30;97.60;;;7.15;69.37;94002.88;5075134;28;20611;-57
2022/01/09 02:38:11;;;;;;;26.83;11.83;;;7.20;97.70;;;7.13;69.33;94002.22;5077598;28;20842;-58
2022/01/09 02:40:38;;;;;;;24.73;12.43;;;7.20;97.70;;;7.12;69.29;93990.09;5076854;28;20475;-59
2022/01/09 02:43:06;;;;;;;17.70;10.97;;;7.20;97.70;;;7.10;70.07;93989.41;5075875;28;20454;-58
2022/01/09 02:45:33;;;;;;;15.93;10.87;;;7.20;97.80;;;7.10;69.59;93993.84;5071946;28;20474;-59
2022/01/09 02:48:02;;;;;;;15.50;10.67;;;7.20;97.80;;;7.09;70.11;93992.16;5077169;28;20818;-59
2022/01/09 02:50:37;;;;;;;17.20;10.07;;;7.20;97.90;;;7.07;70.02;94002.78;5078126;28;20480;-59
2022/01/09 02:53:15;;;;;;;18.33;11.50;;;7.10;97.90;;;7.07;70.05;93994.94;5072216;28;20446;-60
2022/01/09 02:55:44;;;;;;;18.60;11.87;;;7.20;98.00;;;7.07;70.20;93989.69;5073100;28;20573;-59
2022/01/09 02:58:11;;;;;;;18.93;12.50;;;7.20;98.00;;;7.06;69.64;93984.59;5077867;28;20450;-59
2022/01/09 03:00:42;;;;;;;20.63;12.70;;;7.20;98.00;;;7.04;69.70;93979.53;5075149;28;20473;-59
2022/01/09 03:03:09;;;;;;;16.60;11.63;;;7.10;97.90;;;7.03;69.94;93977.84;5076416;28;20898;-59
2022/01/09 03:05:37;;;;;;;18.53;11.73;;;7.10;97.90;;;7.02;70.22;93978.00;5075247;28;20485;-58
2022/01/09 03:08:04;;;;;;;23.13;11.87;;;7.10;97.90;;;7.03;69.67;93977.03;5077923;28;20464;-58
2022/01/09 03:10:32;;;;;;;19.40;10.77;;;7.10;98.00;;;7.03;69.75;93972.63;5079639;28;20841;-59
2022/01/09 03:13:00;;;;;;;18.20;12.53;;;7.10;98.10;;;7.04;69.87;93971.69;5070775;28;20458;-58
2022/01/09 03:15:28;;;;;;;15.33;10.70;;;7.10;98.10;;;7.03;70.38;93962.16;5071502;28;20499;-57
2022/01/09 03:17:55;;;;;;;17.10;12.03;;;7.10;98.30;;;7.04;70.22;93961.22;5073763;28;20959;-57
2022/01/09 03:20:23;;;;;;;17.13;10.97;;;7.10;98.00;;;7.03;70.38;93967.41;5077460;28;20470;-60
2022/01/09 03:22:51;;;;;;;19.60;10.70;;;7.10;98.00;;;7.02;69.97;93960.53;5074161;28;20450;-59
2022/01/09 03:25:18;;;;;;;19.00;11.03;;;7.10;97.90;;;7.02;70.25;93967.53;5078825;28;20478;-59
2022/01/09 03:27:48;;;;;;;19.20;11.63;;;7.10;98.00;;;7.02;70.21;93965.78;5075710;28;20442;-59
2022/01/09 03:30:18;;;;;;;22.87;13.83;;;7.10;98.10;;;7.02;70.42;93959.69;5079147;28;20466;-59
2022/01/09 03:32:45;;;;;;;21.47;11.43;;;7.10;98.10;;;7.01;70.32;93964.13;5077366;28;20450;-57
2022/01/09 03:35:14;;;;;;;18.73;11.20;;;7.10;98.10;;;7.01;70.09;93958.88;5073468;28;20490;-57
2022/01/09 03:37:43;;;;;;;23.73;10.63;;;7.10;98.10;;;6.98;70.06;93952.13;5072861;28;20459;-58
2022/01/09 03:40:13;;;;;;;17.50;11.43;;;7.10;98.10;;;6.98;70.07;93946.09;5073214;28;20470;-60
2022/01/09 03:42:41;;;;;;;22.23;12.30;;;7.10;98.00;;;6.97;70.19;93947.06;5075640;28;20439;-57
2022/01/09 03:45:10;;;;;;;17.77;12.53;;;7.10;97.90;;;6.96;70.04;93948.03;5078985;28;21005;-60
2022/01/09 03:47:39;;;;;;;16.93;11.27;;;7.00;98.00;;;6.95;69.87;93946.38;5079045;28;20450;-58
2022/01/09 03:50:08;;;;;;;23.83;12.70;;;7.00;98.10;;;6.95;69.75;93949.81;5082081;28;20474;-56
2022/01/09 03:52:38;;;;;;;15.70;11.17;;;7.00;97.90;;;6.94;70.23;93944.72;5079744;28;20454;-58
2022/01/09 03:55:07;;;;;;;24.40;13.20;;;7.00;98.00;;;6.94;69.66;93952.56;5077063;28;20514;-57
2022/01/09 03:57:34;;;;;;;23.13;12.37;;;7.00;98.10;;;6.94;69.50;93947.34;5083427;28;20457;-59
2022/01/09 04:00:02;;;;;;;20.67;13.10;;;7.00;98.20;;;6.93;69.66;93948.31;5073594;28;20483;-58
2022/01/09 04:02:29;;;;;;;19.10;11.97;;;7.00;98.00;;;6.92;69.68;93939.63;5073516;28;20448;-60
2022/01/09 04:04:58;;;;;;;20.50;12.20;;;7.00;98.00;;;6.92;70.41;93928.34;5072283;28;21030;-58
2022/01/09 04:07:25;;;;;;;17.67;12.50;;;7.00;98.10;;;6.91;70.06;93937.16;5075433;28;20465;-59
2022/01/09 04:09:52;;;;;;;24.93;12.40;;;7.00;98.10;;;6.91;70.46;93932.78;5074594;28;20850;-58
2022/01/09 04:12:31;;;;;;;17.53;10.97;;;7.00;98.00;;;6.90;69.91;93935.53;5079326;28;20462;-59
2022/01/09 04:14:58;;;;;;;21.10;12.47;;;7.00;98.10;;;6.89;70.48;93926.03;5076460;28;21032;-58
2022/01/09 04:17:36;;;;;;;21.00;12.27;;;7.00;98.00;;;6.86;70.60;93931.53;5078928;28;20454;-59
2022/01/09 04:20:06;;;;;;;19.63;11.77;;;7.00;98.10;;;6.87;70.12;93930.59;5077797;28;20465;-57
2022/01/09 04:22:34;;;;;;;23.50;11.80;;;7.00;98.10;;;6.85;69.96;93928.09;5076791;28;20449;-57
2022/01/09 04:25:01;;;;;;;23.07;11.57;;;7.00;98.00;;;6.85;69.62;93925.50;5073651;28;20475;-60
2022/01/09 04:27:28;;;;;;;22.17;13.63;;;7.00;97.90;;;6.85;69.68;93924.66;5071926;28;20466;-57
2022/01/09 04:29:56;;;;;;;18.27;11.27;;;6.90;97.90;;;6.82;69.85;93934.44;5078282;28;20478;-60
2022/01/09 04:32:24;;;;;;;19.33;11.27;;;6.90;98.00;;;6.80;70.20;93931.13;5075979;28;20459;-57
2022/01/09 04:34:51;;;;;;;18.60;11.20;;;6.90;98.10;;;6.80;70.53;93925.06;5076591;28;20450;-57
2022/01/09 04:37:20;;;;;;;22.13;11.70;;;6.90;98.10;;;6.80;70.00;93930.28;5077871;28;20843;-60
2022/01/09 04:39:49;;;;;;;19.97;11.70;;;6.90;98.10;;;6.77;70.51;93934.03;5075846;28;20443;-57
2022/01/09 04:42:17;;;;;;;21.63;11.43;;;6.90;98.10;;;6.77;70.60;93941.88;5079366;28;21140;-64
2022/01/09 04:44:44;;;;;;;20.67;11.80;;;6.90;98.20;;;6.75;70.45;93938.56;5076773;28;20455;-59
2022/01/09 04:47:15;;;;;;;21.00;11.33;;;6.90;98.30;;;6.77;69.96;93938.41;5078876;28;20908;-58
2022/01/09 04:49:44;;;;;;;34.43;11.37;;;6.90;98.20;;;6.78;70.55;93943.50;5077709;28;20993;-57
2022/01/09 04:52:15;;;;;;;16.53;11.20;;;6.80;98.20;;;6.77;70.16;93944.47;5076140;28;21033;-56
2022/01/09 04:54:44;;;;;;;17.27;10.73;;;6.90;98.30;;;6.78;70.22;93947.91;5073825;28;20829;-57
2022/01/09 04:57:11;;;;;;;21.03;12.50;;;6.80;98.20;;;6.78;70.58;93942.69;5077397;28;20548;-56
2022/01/09 04:59:38;;;;;;;24.43;13.03;;;6.90;98.30;;;6.78;70.14;93935.66;5079008;28;21218;-60
2022/01/09 05:02:06;;;;;;;34.17;15.13;;;6.90;98.30;;;6.80;70.19;93944.22;5076646;28;20466;-60
2022/01/09 05:04:33;;;;;;;24.47;14.60;;;6.90;98.30;;;6.81;70.70;93948.44;5072212;28;20897;-59
2022/01/09 05:07:00;;;;;;;44.27;19.00;;;6.90;98.30;;;6.83;69.94;93950.94;5074995;28;20508;-58
2022/01/09 05:09:27;;;;;;;34.57;18.10;;;6.90;98.30;;;6.85;70.55;93948.16;5074276;28;20450;-60
2022/01/09 05:11:57;;;;;;;35.53;21.17;;;6.90;98.20;;;6.86;70.49;93947.22;5072468;28;20479;-59
2022/01/09 05:14:24;;;;;;;28.03;17.53;;;6.90;98.10;;;6.84;70.47;93941.31;5072821;28;20447;-60
2022/01/09 05:16:51;;;;;;;26.90;17.70;;;7.00;98.20;;;6.83;69.60;93940.47;5071827;28;20487;-60
2022/01/09 05:19:20;;;;;;;26.90;16.90;;;6.90;98.00;;;6.82;70.40;93939.66;5073673;28;20449;-59
2022/01/09 05:21:48;;;;;;;25.00;17.13;;;6.90;98.20;;;6.83;69.97;93943.09;5073965;28;20478;-58
2022/01/09 05:24:15;;;;;;;21.40;14.50;;;6.90;98.20;;;6.84;70.41;93936.09;5076362;28;20459;-58
2022/01/09 05:26:43;;;;;;;26.50;16.37;;;6.90;98.20;;;6.84;70.01;93923.03;5075623;28;20931;-58
2022/01/09 05:29:11;;;;;;;22.30;13.40;;;6.90;98.20;;;6.85;70.56;93930.72;5076871;28;20979;-58
2022/01/09 05:31:39;;;;;;;21.97;12.57;;;6.90;98.20;;;6.86;70.01;93918.47;5073722;28;20482;-59
2022/01/09 05:34:06;;;;;;;19.07;12.80;;;6.90;98.20;;;6.87;70.12;93923.56;5073031;28;20450;-60
2022/01/09 05:36:34;;;;;;;20.10;12.50;;;7.00;98.20;;;6.88;70.33;93924.38;5075175;28;20496;-58
2022/01/09 05:39:01;;;;;;;22.20;12.30;;;7.00;98.20;;;6.90;70.30;93920.66;5075449;28;21072;-59
2022/01/09 05:41:29;;;;;;;17.47;11.83;;;7.00;98.30;;;6.90;70.07;93912.81;5072384;28;20471;-57
2022/01/09 05:43:56;;;;;;;19.53;11.90;;;7.00;98.30;;;6.92;69.99;93899.59;5081003;28;20458;-58
2022/01/09 05:46:25;;;;;;;18.83;12.00;;;7.00;98.30;;;6.90;69.66;93904.16;5075876;28;20485;-59
2022/01/09 05:48:52;;;;;;;20.93;13.17;;;7.00;97.90;;;6.85;69.63;93904.59;5076976;28;20971;-60
2022/01/09 05:51:19;;;;;;;18.43;12.83;;;7.00;97.80;;;6.80;69.46;93909.38;5074951;28;20998;-61
2022/01/09 05:53:46;;;;;;;15.57;12.03;;;6.90;97.80;;;6.75;69.67;93911.59;5077513;28;20564;-57
2022/01/09 05:56:14;;;;;;;18.10;11.23;;;6.90;97.90;;;6.74;70.10;93907.34;5071855;28;20851;-59
2022/01/09 05:58:41;;;;;;;19.40;12.70;;;6.80;98.20;;;6.72;70.69;93899.63;5073321;28;20962;-59
2022/01/09 06:01:08;;;;;;;19.20;12.33;;;6.80;98.10;;;6.71;69.96;93913.69;5072091;28;21006;-58
2022/01/09 06:03:37;;;;;;;22.87;12.23;;;6.80;97.90;;;6.69;69.83;93912.16;5072899;28;20454;-59
2022/01/09 06:06:04;;;;;;;22.60;13.23;;;6.80;97.90;;;6.67;70.00;93914.91;5072045;28;21124;-58
2022/01/09 06:08:32;;;;;;;27.17;13.87;;;6.80;98.10;;;6.67;69.99;93914.91;5075494;28;20509;-59
2022/01/09 06:10:59;;;;;;;17.17;11.50;;;6.80;98.10;;;6.66;70.46;93913.25;5076418;28;20481;-60
2022/01/09 06:13:26;;;;;;;23.23;12.17;;;6.80;98.20;;;6.66;70.36;93908.03;5074500;28;20450;-59
2022/01/09 06:15:53;;;;;;;29.40;17.10;;;6.80;98.20;;;6.68;70.34;93903.50;5074273;28;20485;-58
2022/01/09 06:18:21;;;;;;;20.80;13.00;;;6.80;98.50;;;6.72;70.00;93912.69;5072817;28;20521;-60
2022/01/09 06:20:49;;;;;;;19.17;11.60;;;6.80;98.30;;;6.74;70.62;93905.56;5075680;28;20474;-57
2022/01/09 06:23:20;;;;;;;17.83;11.40;;;6.80;98.30;;;6.81;70.66;93905.81;5076136;28;20534;-60
2022/01/09 06:25:48;;;;;;;26.87;15.87;;;6.90;98.50;;;7.01;70.62;93906.59;5078266;28;20470;-60
2022/01/09 06:28:15;;;;;;;30.40;17.53;;;7.10;98.70;;;7.18;69.61;93905.03;5074181;28;20454;-61
2022/01/09 06:30:42;;;;;;;44.83;21.73;;;7.20;98.30;;;7.31;69.87;93902.09;5075609;28;20475;-59
2022/01/09 06:33:10;;;;;;;35.93;20.63;;;7.40;98.10;;;7.46;68.88;93899.81;5076644;28;20452;-58
2022/01/09 06:35:37;;;;;;;37.37;21.03;;;7.50;97.80;;;7.71;69.26;93893.91;5079565;28;20478;-61
2022/01/09 06:38:06;;;;;;;37.00;17.80;;;7.80;97.80;;;7.98;68.60;93891.38;5075159;28;20455;-57
2022/01/09 06:40:33;;;;;;;35.23;18.07;;;8.00;97.20;;;8.11;67.83;93899.72;5076830;28;20471;-59
2022/01/09 06:43:00;;;;;;;37.63;21.00;;;8.10;96.80;;;8.12;67.21;93901.38;5075097;28;20454;-64
2022/01/09 06:45:28;;;;;;;46.70;21.47;;;8.20;96.30;;;8.13;67.26;93903.00;5075386;28;20470;-61
2022/01/09 06:47:55;;;;;;;39.33;21.67;;;8.20;96.20;;;8.08;66.89;93894.78;5072265;28;20790;-57
2022/01/09 06:50:23;;;;;;;36.83;18.13;;;8.20;96.00;;;8.05;66.76;93897.69;5076593;28;20482;-57
2022/01/09 06:52:50;;;;;;;23.10;14.40;;;8.20;95.90;;;7.98;66.82;93900.09;5070917;28;20537;-61
2022/01/09 06:55:19;;;;;;;28.10;15.20;;;8.10;95.70;;;8.07;67.00;93899.19;5075499;28;20471;-59
2022/01/09 06:57:46;;;;;;;22.80;15.23;;;8.20;96.20;;;8.43;66.83;93893.13;5072543;28;20487;-59
2022/01/09 07:00:16;;;;;;;22.43;14.50;;;8.50;96.30;;;9.04;67.07;93895.91;5072749;28;20552;-58
2022/01/09 07:02:44;;;;;;;22.47;14.50;;;9.10;96.30;;;9.77;65.06;93892.78;5070086;28;20459;-59
2022/01/09 07:05:12;;;;;;;19.30;12.83;;;9.80;95.20;;;10.42;63.94;93906.28;5072227;28;20878;-59
2022/01/09 07:07:39;;;;;;;22.87;13.40;;;10.50;93.80;;;10.73;62.59;93904.63;5071184;28;20454;-58
2022/01/09 07:10:07;;;;;;;25.97;13.47;;;10.80;92.80;;;10.74;61.50;93908.09;5073910;28;20512;-59
2022/01/09 07:12:36;;;;;;;24.20;12.47;;;10.90;91.70;;;10.62;61.13;93912.88;5077979;28;20451;-59
2022/01/09 07:15:03;;;;;;;18.77;12.27;;;10.80;90.90;;;10.65;61.23;93917.78;5073128;28;20474;-60
2022/01/09 07:17:31;;;;;;;18.20;10.00;;;10.80;91.20;;;10.70;61.24;93917.31;5077694;28;20477;-61
2022/01/09 07:19:58;;;;;;;14.13;9.40;;;10.90;91.10;;;10.84;61.31;93911.38;5081073;28;20478;-58
2022/01/09 07:22:27;;;;;;;19.10;11.17;;;10.90;91.10;;;11.11;60.63;93918.09;5079652;28;20458;-60
2022/01/09 07:24:54;;;;;;;16.40;9.50;;;11.20;90.90;;;11.12;59.90;93925.03;5080251;28;20463;-58
2022/01/09 07:27:22;;;;;;;10.97;8.57;;;11.30;89.80;;;11.00;59.62;93910.56;5077751;28;20553;-58
2022/01/09 07:29:51;;;;;;;17.10;10.87;;;11.20;89.30;;;10.93;60.04;93910.38;5075436;28;21053;-59
2022/01/09 07:32:19;;;;;;;13.87;10.43;;;11.10;89.20;;;10.98;59.82;93925.66;5073290;28;21117;-60
2022/01/09 07:34:46;;;;;;;21.47;13.10;;;11.20;89.30;;;11.10;59.89;93911.19;5081949;28;20453;-58
2022/01/09 07:37:13;;;;;;;19.47;11.90;;;11.20;89.50;;;11.37;59.91;93911.81;5079871;28;20487;-60
2022/01/09 07:39:40;;;;;;;20.83;13.70;;;11.40;90.00;;;11.45;59.10;93908.34;5079106;28;20459;-60
2022/01/09 07:42:08;;;;;;;20.17;12.80;;;11.60;89.00;;;11.34;59.03;93912.16;5076815;28;20455;-60
2022/01/09 07:44:35;;;;;;;23.27;13.57;;;11.50;87.70;;;11.16;59.27;93909.72;5073944;28;20528;-60
2022/01/09 07:47:05;;;;;;;26.23;15.80;;;11.30;87.90;;;10.96;59.34;93909.25;5074899;28;21020;-58
2022/01/09 07:49:32;;;;;;;23.30;13.63;;;11.20;87.90;;;10.77;59.67;93905.16;5079984;28;20917;-60
2022/01/09 07:51:59;;;;;;;20.50;14.73;;;10.90;88.20;;;10.57;59.75;93899.41;5076705;28;20451;-60
2022/01/09 07:54:26;;;;;;;26.20;15.50;;;10.70;88.20;;;10.38;60.09;93911.88;5076328;28;20448;-60
2022/01/09 07:56:54;;;;;;;30.40;14.90;;;10.50;88.60;;;10.23;60.50;93900.31;5076403;28;20486;-62
2022/01/09 07:59:21;;;;;;;21.43;13.73;;;10.40;89.70;;;10.08;60.65;93894.84;5072652;28;20963;-60
2022/01/09 08:01:49;;;;;;;24.80;15.27;;;10.20;90.00;;;9.94;60.68;93896.28;5074729;28;20474;-59
2022/01/09 08:04:18;;;;;;;20.77;14.20;;;10.00;90.00;;;9.77;61.31;93886.72;5073914;28;20467;-61
2022/01/09 08:06:45;;;;;;;22.30;15.37;;;9.90;90.80;;;9.62;61.88;93884.72;5078730;28;20482;-59
2022/01/09 08:09:12;;;;;;;24.77;15.63;;;9.70;91.10;;;9.52;62.02;93884.00;5080047;28;20477;-59
2022/01/09 08:11:40;;;;;;;25.87;16.17;;;9.60;91.50;;;9.44;62.25;93883.97;5075401;28;21008;-59
2022/01/09 08:14:07;;;;;;;25.40;16.73;;;9.50;91.70;;;9.37;62.50;93880.34;5077357;28;20465;-60
2022/01/09 08:16:35;;;;;;;26.27;14.20;;;9.50;92.00;;;9.29;62.50;93876.69;5079080;28;20578;-58
2022/01/09 08:19:04;;;;;;;18.97;12.20;;;9.40;92.00;;;9.23;62.40;93866.81;5077361;28;20451;-62
2022/01/09 08:21:32;;;;;;;19.50;10.80;;;9.30;92.00;;;9.18;62.58;93866.47;5077134;28;20475;-59
2022/01/09 08:24:00;;;;;;;14.70;9.80;;;9.30;92.00;;;9.13;62.81;93874.00;5075844;28;20454;-61
2022/01/09 08:26:27;;;;;;;13.93;9.87;;;9.20;92.10;;;9.13;63.04;93860.88;5073929;28;20474;-62
2022/01/09 08:28:54;;;;;;;15.80;9.70;;;9.20;92.60;;;9.13;63.08;93853.00;5074892;28;20451;-61
2022/01/09 08:31:22;;;;;;;12.90;9.47;;;9.20;92.50;;;9.15;63.18;93858.91;5075875;28;20564;-58
2022/01/09 08:33:49;;;;;;;8.40;6.87;;;9.20;92.90;;;9.13;62.84;93859.06;5078033;28;20458;-59
2022/01/09 08:36:16;;;;;;;9.73;7.80;;;9.20;92.30;;;9.09;62.48;93856.91;5075183;28;20469;-60
2022/01/09 08:38:47;;;;;;;8.03;6.63;;;9.20;92.00;;;9.04;62.38;93857.38;5077198;28;20995;-60
2022/01/09 08:41:14;;;;;;;12.63;8.10;;;9.10;91.90;;;9.01;62.28;93846.38;5078875;28;20550;-61
2022/01/09 08:43:41;;;;;;;9.93;6.90;;;9.10;91.90;;;9.00;62.05;93853.44;5076797;28;20508;-61
2022/01/09 08:46:09;;;;;;;11.40;8.80;;;9.10;91.90;;;9.00;62.04;93857.84;5075001;28;20469;-59
2022/01/09 08:48:37;;;;;;;12.77;8.87;;;9.00;91.80;;;8.97;62.06;93840.63;5073722;28;20486;-59
2022/01/09 08:51:06;;;;;;;7.23;6.53;;;9.00;91.90;;;8.95;62.13;93842.56;5073775;28;20526;-60
2022/01/09 08:53:35;;;;;;;13.57;8.07;;;9.00;91.90;;;8.91;62.02;93839.44;5075693;28;20595;-60
2022/01/09 08:56:04;;;;;;;13.97;8.10;;;9.00;92.20;;;8.87;62.18;93832.03;5075845;28;20909;-59
2022/01/09 08:58:32;;;;;;;12.07;8.20;;;8.90;91.80;;;8.81;62.00;93828.22;5077573;28;20495;-59
2022/01/09 09:00:59;;;;;;;13.10;8.47;;;8.90;91.80;;;8.77;62.10;93832.16;5076870;28;20485;-62
2022/01/09 09:03:26;;;;;;;14.43;7.90;;;8.80;91.80;;;8.73;62.62;93829.00;5076039;28;20507;-59
2022/01/09 09:05:54;;;;;;;14.43;7.60;;;8.80;91.90;;;8.72;63.08;93829.16;5074757;28;20850;-61
2022/01/09 09:08:21;;;;;;;14.03;8.03;;;8.80;92.10;;;8.72;62.90;93824.75;5077821;28;20451;-59
2022/01/09 09:10:48;;;;;;;13.73;9.03;;;8.80;92.20;;;8.74;63.18;93816.72;5077931;28;20498;-58
2022/01/09 09:13:17;;;;;;;15.00;9.20;;;8.80;92.30;;;8.82;62.99;93814.16;5072564;28;20454;-59
2022/01/09 09:15:44;;;;;;;10.80;8.60;;;8.90;92.40;;;9.08;62.45;93798.38;5073711;28;20470;-58
2022/01/09 09:18:12;;;;;;;13.03;8.10;;;9.10;92.60;;;9.42;62.15;93796.69;5078920;28;20494;-61
2022/01/09 09:20:39;;;;;;;11.90;8.97;;;9.40;92.40;;;9.90;61.57;93789.09;5075892;28;20852;-61
2022/01/09 09:23:06;;;;;;;14.33;8.73;;;9.70;92.20;;;10.58;60.95;93785.31;5075248;28;20446;-61
2022/01/09 09:25:34;;;;;;;7.03;6.33;;;10.30;91.50;;;11.36;59.62;93783.81;5076000;28;20482;-58
2022/01/09 09:28:01;;;;;;;11.20;7.70;;;11.00;90.90;;;12.06;57.96;93778.66;5075440;28;20957;-61
2022/01/09 09:30:30;;;;;;;13.17;6.63;;;11.60;89.70;;;12.60;56.56;93775.09;5076984;28;21022;-59
2022/01/09 09:32:57;;;;;;;10.27;6.07;;;12.20;87.30;;;12.80;55.64;93764.84;5075441;28;20512;-61
2022/01/09 09:35:24;;;;;;;9.13;6.90;;;12.50;84.50;;;12.86;54.67;93764.13;5076133;28;20627;-58
2022/01/09 09:37:51;;;;;;;9.90;7.10;;;12.70;83.20;;;12.89;54.78;93774.31;5068471;28;21021;-58
2022/01/09 09:40:19;;;;;;;13.53;9.00;;;12.80;82.30;;;12.81;54.72;93771.75;5077263;28;20473;-60
2022/01/09 09:42:46;;;;;;;10.33;7.67;;;12.70;81.60;;;12.60;54.70;93767.19;5079843;28;20478;-59
2022/01/09 09:45:14;;;;;;;10.77;7.63;;;12.60;80.90;;;12.48;54.63;93759.69;5078918;28;21023;-58
2022/01/09 09:47:43;;;;;;;12.37;8.10;;;12.50;80.70;;;12.72;54.44;93753.34;5074954;28;20527;-57
2022/01/09 09:50:12;;;;;;;9.10;6.30;;;12.60;81.00;;;13.20;54.12;93745.09;5077861;28;20531;-61
2022/01/09 09:52:41;;;;;;;9.53;6.90;;;13.00;80.90;;;13.81;53.50;93741.34;5072184;28;20447;-62
2022/01/09 09:55:09;;;;;;;6.30;5.80;;;13.50;80.20;;;14.32;52.16;93732.44;5075264;28;20585;-60
2022/01/09 09:57:36;;;;;;;9.00;6.53;;;13.90;78.20;;;14.62;51.31;93727.81;5076853;28;20932;-62
2022/01/09 10:00:06;;;;;;;10.60;8.30;;;14.20;77.00;;;15.05;50.31;93717.09;5073973;28;20475;-59
2022/01/09 10:02:44;;;;;;;8.50;6.53;;;14.70;75.20;;;15.62;48.85;93716.94;5071951;28;20447;-61
2022/01/09 10:05:11;;;;;;;8.07;6.20;;;15.10;72.60;;;16.02;49.11;93724.16;5072800;28;20466;-61
2022/01/09 10:07:38;;;;;;;9.87;6.30;;;15.50;72.60;;;16.25;48.47;93737.06;5079227;28;20457;-58
2022/01/09 10:10:09;;;;;;;8.73;5.70;;;15.80;70.60;;;16.32;47.58;93727.28;5075816;28;20555;-62
2022/01/09 10:12:36;;;;;;;6.20;5.00;;;16.00;69.00;;;16.52;46.99;93721.16;5075825;28;20535;-57
2022/01/09 10:15:06;;;;;;;6.03;4.90;;;16.20;67.60;;;16.87;46.41;93719.13;5075879;28;20995;-57
2022/01/09 10:17:34;;;;;;;6.47;5.57;;;16.50;66.80;;;17.16;45.90;93723.13;5075611;28;20489;-58
2022/01/09 10:20:04;;;;;;;8.20;5.90;;;16.70;66.10;;;17.10;45.54;93729.31;5072768;28;20479;-63